createdAt,value
2022-09-15T00:00:58.610Z,20.80
2022-09-15T00:03:25.427Z,20.70
2022-09-15T00:05:53.498Z,20.70
2022-09-15T00:08:20.621Z,20.50
2022-09-15T00:10:58.528Z,20.50
2022-09-15T00:13:25.708Z,20.40
2022-09-15T00:15:52.968Z,20.40
2022-09-15T00:18:19.883Z,20.30
2022-09-15T00:20:46.645Z,20.30
2022-09-15T00:23:14.284Z,20.40
2022-09-15T00:26:01.257Z,20.40
2022-09-15T00:28:28.034Z,20.40
2022-09-15T00:30:55.192Z,20.30
2022-09-15T00:33:22.478Z,20.30
2022-09-15T00:35:50.123Z,20.40
2022-09-15T00:38:18.223Z,20.50
2022-09-15T00:40:46.322Z,20.60
2022-09-15T00:43:13.996Z,20.70
2022-09-15T00:45:41.059Z,20.70
2022-09-15T00:48:09.896Z,20.70
2022-09-15T00:50:37.606Z,20.50
2022-09-15T00:53:05.990Z,20.40
2022-09-15T00:55:47.470Z,20.30
2022-09-15T00:58:17.479Z,20.40
2022-09-15T01:00:47.806Z,20.40
2022-09-15T01:03:15.709Z,20.20
2022-09-15T01:05:46.217Z,20.00
2022-09-15T01:08:24.892Z,19.90
2022-09-15T01:10:52.096Z,19.80
2022-09-15T01:13:19.029Z,19.80
2022-09-15T01:16:04.695Z,19.70
2022-09-15T01:18:31.357Z,19.70
2022-09-15T01:21:04.208Z,19.80
2022-09-15T01:23:42.668Z,19.80
2022-09-15T01:26:29.588Z,19.80
2022-09-15T01:29:15.135Z,19.70
2022-09-15T01:32:10.071Z,19.70
2022-09-15T01:34:39.932Z,19.60
2022-09-15T01:37:09.557Z,19.60
2022-09-15T01:39:39.149Z,19.60
2022-09-15T01:42:07.688Z,19.50
2022-09-15T01:44:43.792Z,19.50
2022-09-15T01:47:13.088Z,19.60
2022-09-15T01:49:46.151Z,19.50
2022-09-15T01:52:15.840Z,19.50
2022-09-15T01:54:45.902Z,19.70
2022-09-15T01:57:12.716Z,19.60
2022-09-15T01:59:39.444Z,19.60
2022-09-15T02:02:10.721Z,19.50
2022-09-15T02:04:40.434Z,19.50
2022-09-15T02:07:16.436Z,19.50
2022-09-15T02:09:48.493Z,19.60
2022-09-15T02:12:33.959Z,19.60
2022-09-15T02:15:05.434Z,19.50
2022-09-15T02:17:35.403Z,19.40
2022-09-15T02:20:08.780Z,19.40
2022-09-15T02:22:37.827Z,19.40
2022-09-15T02:25:08.063Z,19.40
2022-09-15T02:27:38.973Z,19.50
2022-09-15T02:30:09.841Z,19.40
2022-09-15T02:32:37.572Z,19.40
2022-09-15T02:35:06.700Z,19.30
2022-09-15T02:37:34.930Z,19.30
2022-09-15T02:40:01.873Z,19.40
2022-09-15T02:42:30.279Z,19.40
2022-09-15T02:44:57.744Z,19.40
2022-09-15T02:47:24.635Z,19.50
2022-09-15T02:49:51.719Z,19.50
2022-09-15T02:52:18.420Z,19.50
2022-09-15T02:54:45.152Z,19.50
2022-09-15T02:57:11.904Z,19.50
2022-09-15T02:59:57.421Z,19.70
2022-09-15T03:02:25.054Z,19.70
2022-09-15T03:04:51.818Z,19.90
2022-09-15T03:07:19.027Z,19.90
2022-09-15T03:09:46.073Z,19.90
2022-09-15T03:12:13.268Z,20.00
2022-09-15T03:14:39.981Z,20.10
2022-09-15T03:17:06.791Z,20.00
2022-09-15T03:19:33.488Z,20.10
2022-09-15T03:22:00.290Z,20.10
2022-09-15T03:24:27.060Z,20.00
2022-09-15T03:26:53.779Z,19.90
2022-09-15T03:29:20.602Z,19.90
2022-09-15T03:31:47.396Z,19.80
2022-09-15T03:34:14.143Z,19.50
2022-09-15T03:36:41.305Z,19.50
2022-09-15T03:39:08.077Z,19.50
2022-09-15T03:41:34.816Z,19.60
2022-09-15T03:44:01.574Z,19.80
2022-09-15T03:46:28.640Z,19.90
2022-09-15T03:48:55.449Z,19.90
2022-09-15T03:51:22.202Z,19.80
2022-09-15T03:53:49.033Z,19.70
2022-09-15T03:56:23.589Z,19.60
2022-09-15T03:58:50.545Z,19.60
2022-09-15T04:01:18.998Z,19.50
2022-09-15T04:03:50.660Z,19.50
2022-09-15T04:06:19.035Z,19.40
2022-09-15T04:08:45.854Z,19.30
2022-09-15T04:11:13.005Z,19.20
2022-09-15T04:13:40.383Z,19.20
2022-09-15T04:16:12.248Z,19.20
2022-09-15T04:18:39.344Z,19.10
2022-09-15T04:21:07.305Z,19.10
2022-09-15T04:23:34.440Z,19.10
2022-09-15T04:26:02.087Z,19.10
2022-09-15T04:28:31.459Z,19.00
2022-09-15T04:31:09.032Z,19.00
2022-09-15T04:33:36.370Z,19.20
2022-09-15T04:36:04.964Z,19.10
2022-09-15T04:38:31.756Z,19.20
2022-09-15T04:40:58.825Z,19.10
2022-09-15T04:43:26.022Z,19.00
2022-09-15T04:45:52.812Z,19.00
2022-09-15T04:48:19.652Z,19.00
2022-09-15T04:50:46.356Z,19.20
2022-09-15T04:53:13.293Z,19.30
2022-09-15T04:55:40.643Z,19.40
2022-09-15T04:58:07.313Z,19.50
2022-09-15T05:00:37.535Z,19.50
2022-09-15T05:03:04.405Z,19.30
2022-09-15T05:05:33.801Z,19.40
2022-09-15T05:08:01.001Z,19.30
2022-09-15T05:10:27.693Z,19.40
2022-09-15T05:12:54.463Z,19.40
2022-09-15T05:15:21.184Z,19.40
2022-09-15T05:17:49.757Z,19.40
2022-09-15T05:20:17.534Z,19.40
2022-09-15T05:22:44.543Z,19.30
2022-09-15T05:25:11.326Z,19.40
2022-09-15T05:27:39.354Z,19.70
2022-09-15T05:30:32.700Z,19.80
2022-09-15T05:32:53.953Z,19.90
2022-09-15T05:35:20.771Z,19.80
2022-09-15T05:37:47.472Z,20.00
2022-09-15T05:40:15.327Z,20.10
2022-09-15T05:42:42.073Z,20.00
2022-09-15T05:45:09.136Z,19.90
2022-09-15T05:47:35.862Z,19.90
2022-09-15T05:50:02.691Z,20.00
2022-09-15T05:52:29.685Z,20.10
2022-09-15T05:54:59.125Z,20.20
2022-09-15T05:57:27.098Z,20.40
2022-09-15T05:59:53.786Z,20.50
2022-09-15T06:02:20.589Z,20.50
2022-09-15T06:04:47.338Z,20.50
2022-09-15T06:07:14.092Z,20.40
2022-09-15T06:09:42.282Z,20.60
2022-09-15T06:12:09.013Z,20.70
2022-09-15T06:14:35.736Z,20.70
2022-09-15T06:17:02.480Z,20.70
2022-09-15T06:19:29.255Z,20.70
2022-09-15T06:21:55.938Z,20.70
2022-09-15T06:24:22.750Z,20.70
2022-09-15T06:26:49.416Z,20.70
2022-09-15T06:29:16.175Z,20.60
2022-09-15T06:31:42.928Z,20.50
2022-09-15T06:34:11.206Z,20.50
2022-09-15T06:36:38.891Z,20.50
2022-09-15T06:39:05.769Z,20.50
2022-09-15T06:41:58.446Z,20.50
2022-09-15T06:44:19.972Z,20.50
2022-09-15T06:46:47.086Z,20.60
2022-09-15T06:49:14.158Z,20.70
2022-09-15T06:51:40.875Z,20.80
2022-09-15T06:54:07.797Z,20.80
2022-09-15T06:56:37.885Z,20.90
2022-09-15T06:59:05.581Z,21.00
2022-09-15T07:01:32.444Z,21.20
2022-09-15T07:03:59.958Z,22.10
2022-09-15T07:06:30.988Z,22.80
2022-09-15T07:08:58.631Z,22.90
2022-09-15T07:11:25.611Z,22.90
2022-09-15T07:13:52.549Z,24.20
2022-09-15T07:16:19.665Z,26.20
2022-09-15T07:18:46.759Z,28.30
2022-09-15T07:21:14.707Z,27.60
2022-09-15T07:23:41.994Z,27.20
2022-09-15T07:26:14.748Z,26.40
2022-09-15T07:28:42.641Z,25.60
2022-09-15T07:31:10.559Z,24.90
2022-09-15T07:33:37.507Z,24.50
2022-09-15T07:36:05.395Z,25.40
2022-09-15T07:38:32.293Z,25.70
2022-09-15T07:41:05.382Z,25.70
2022-09-15T07:43:32.611Z,25.70
2022-09-15T07:45:59.873Z,25.60
2022-09-15T07:48:26.753Z,25.40
2022-09-15T07:50:53.562Z,25.20
2022-09-15T07:53:20.842Z,24.80
2022-09-15T07:55:53.542Z,24.90
2022-09-15T07:58:20.530Z,25.10
2022-09-15T08:00:47.721Z,24.90
2022-09-15T08:03:15.320Z,25.30
2022-09-15T08:05:45.413Z,25.80
2022-09-15T08:08:12.640Z,25.70
2022-09-15T08:10:41.224Z,25.80
2022-09-15T08:13:08.183Z,26.10
2022-09-15T08:15:35.652Z,26.20
2022-09-15T08:18:02.588Z,26.30
2022-09-15T08:20:29.371Z,26.30
2022-09-15T08:22:56.116Z,26.40
2022-09-15T08:25:22.909Z,26.40
2022-09-15T08:27:49.775Z,26.30
2022-09-15T08:30:16.527Z,26.40
2022-09-15T08:32:43.274Z,26.60
2022-09-15T08:35:09.962Z,26.70
2022-09-15T08:37:36.781Z,26.70
2022-09-15T08:40:03.751Z,26.70
2022-09-15T08:42:31.417Z,26.80
2022-09-15T08:45:00.552Z,26.90
2022-09-15T08:47:43.118Z,27.00
2022-09-15T08:50:15.746Z,27.10
2022-09-15T08:52:57.968Z,27.30
2022-09-15T08:55:43.281Z,27.50
2022-09-15T08:58:14.845Z,27.60
2022-09-15T09:00:42.033Z,27.70
2022-09-15T09:03:15.010Z,27.70
2022-09-15T09:05:52.054Z,27.70
2022-09-15T09:08:18.900Z,27.70
2022-09-15T09:11:11.763Z,27.80
2022-09-15T09:13:38.570Z,27.90
2022-09-15T09:16:17.996Z,28.10
2022-09-15T09:18:47.049Z,28.20
2022-09-15T09:21:32.613Z,28.10
2022-09-15T09:24:17.087Z,28.00
2022-09-15T09:26:45.204Z,28.00
2022-09-15T09:29:13.862Z,28.40
2022-09-15T09:31:40.961Z,28.40
2022-09-15T09:34:20.621Z,28.50
2022-09-15T09:37:01.032Z,28.60
2022-09-15T09:39:28.216Z,28.10
2022-09-15T09:41:55.171Z,28.60
2022-09-15T09:44:31.948Z,28.80
2022-09-15T09:46:59.425Z,28.90
2022-09-15T09:49:29.272Z,28.70
2022-09-15T09:51:57.196Z,29.00
2022-09-15T09:54:28.248Z,29.10
2022-09-15T09:56:56.404Z,29.00
2022-09-15T09:59:31.079Z,29.00
2022-09-15T10:02:14.302Z,28.90
2022-09-15T10:04:45.057Z,28.70
2022-09-15T10:07:12.503Z,28.70
2022-09-15T10:09:39.696Z,28.60
2022-09-15T10:12:07.071Z,28.80
2022-09-15T10:14:41.113Z,28.80
2022-09-15T10:17:13.156Z,28.90
2022-09-15T10:19:42.950Z,29.10
2022-09-15T10:22:10.134Z,29.00
2022-09-15T10:24:39.069Z,29.10
2022-09-15T10:27:15.861Z,29.30
2022-09-15T10:29:42.515Z,29.40
2022-09-15T10:32:16.699Z,29.30
2022-09-15T10:34:44.148Z,29.10
2022-09-15T10:37:15.544Z,29.20
2022-09-15T10:39:52.689Z,29.30
2022-09-15T10:42:19.449Z,29.10
2022-09-15T10:44:55.633Z,29.10
2022-09-15T10:47:41.591Z,28.90
2022-09-15T10:50:12.884Z,28.90
2022-09-15T10:52:51.652Z,29.50
2022-09-15T10:55:37.071Z,29.70
2022-09-15T10:58:29.641Z,30.00
2022-09-15T11:01:14.535Z,30.60
2022-09-15T11:03:50.422Z,30.80
2022-09-15T11:06:17.455Z,30.90
2022-09-15T11:08:55.348Z,30.70
2022-09-15T11:11:28.796Z,30.50
2022-09-15T11:14:19.111Z,30.60
2022-09-15T11:17:04.932Z,30.00
2022-09-15T11:19:50.712Z,30.00
2022-09-15T11:22:21.636Z,30.10
2022-09-15T11:24:49.843Z,29.60
2022-09-15T11:27:25.958Z,30.00
2022-09-15T11:29:53.049Z,30.40
2022-09-15T11:32:24.292Z,30.00
2022-09-15T11:34:57.043Z,29.60
2022-09-15T11:37:26.880Z,29.90
2022-09-15T11:40:12.303Z,30.10
2022-09-15T11:42:41.839Z,29.60
2022-09-15T11:45:20.163Z,29.50
2022-09-15T11:47:52.728Z,29.50
2022-09-15T11:50:22.893Z,30.20
2022-09-15T11:53:01.409Z,30.20
2022-09-15T11:55:37.203Z,30.00
2022-09-15T11:58:22.959Z,29.30
2022-09-15T12:01:01.793Z,29.20
2022-09-15T12:03:37.471Z,29.10
2022-09-15T12:06:24.798Z,29.50
2022-09-15T12:09:02.350Z,29.60
2022-09-15T12:11:34.630Z,30.00
2022-09-15T12:14:02.902Z,30.30
2022-09-15T12:16:29.915Z,30.10
2022-09-15T12:18:59.629Z,29.50
2022-09-15T12:21:38.741Z,29.30
2022-09-15T12:24:14.828Z,29.50
2022-09-15T12:26:43.323Z,29.70
2022-09-15T12:29:22.334Z,30.10
2022-09-15T12:31:49.113Z,30.30
2022-09-15T12:34:25.225Z,30.50
2022-09-15T12:36:53.242Z,30.50
2022-09-15T12:39:25.857Z,30.30
2022-09-15T12:41:53.999Z,30.50
2022-09-15T12:44:41.050Z,30.60
2022-09-15T12:47:16.540Z,30.90
2022-09-15T12:49:45.480Z,31.20
2022-09-15T12:52:12.793Z,31.00
2022-09-15T12:54:42.908Z,31.00
2022-09-15T12:57:20.653Z,30.70
2022-09-15T12:59:47.650Z,30.40
2022-09-15T13:02:33.074Z,31.10
2022-09-15T13:04:59.794Z,31.20
2022-09-15T13:07:34.162Z,31.00
2022-09-15T13:10:13.136Z,30.80
2022-09-15T13:12:42.727Z,31.10
2022-09-15T13:15:13.687Z,31.20
2022-09-15T13:17:41.755Z,31.20
2022-09-15T13:20:10.049Z,31.40
2022-09-15T13:22:39.999Z,31.00
2022-09-15T13:25:14.389Z,31.30
2022-09-15T13:27:44.823Z,31.30
2022-09-15T13:30:34.894Z,30.90
2022-09-15T13:33:19.806Z,30.80
2022-09-15T13:36:05.746Z,30.80
2022-09-15T13:38:32.642Z,31.00
2022-09-15T13:41:05.890Z,30.50
2022-09-15T13:43:33.842Z,30.10
2022-09-15T13:46:12.629Z,30.00
2022-09-15T13:48:39.869Z,29.90
2022-09-15T13:51:13.246Z,30.00
2022-09-15T13:53:43.652Z,30.00
2022-09-15T13:56:18.795Z,30.10
2022-09-15T13:59:08.304Z,30.40
2022-09-15T14:01:38.778Z,31.00
2022-09-15T14:04:10.189Z,31.00
2022-09-15T14:06:37.818Z,30.70
2022-09-15T14:09:12.644Z,30.90
2022-09-15T14:11:40.684Z,30.90
2022-09-15T14:14:11.007Z,30.80
2022-09-15T14:16:39.150Z,30.70
2022-09-15T14:19:24.957Z,30.90
2022-09-15T14:21:56.190Z,30.60
2022-09-15T14:24:30.054Z,30.40
2022-09-15T14:27:03.374Z,30.30
2022-09-15T14:29:31.005Z,30.20
2022-09-15T14:32:00.211Z,30.30
2022-09-15T14:34:29.011Z,30.00
2022-09-15T14:37:04.933Z,30.00
2022-09-15T14:39:33.448Z,30.20
2022-09-15T14:42:08.590Z,30.20
2022-09-15T14:47:27.895Z,30.00
2022-09-15T14:50:07.847Z,29.60
2022-09-15T14:52:37.614Z,29.70
2022-09-15T14:55:05.818Z,29.90
2022-09-15T14:57:33.965Z,29.70
2022-09-15T15:00:04.949Z,29.40
2022-09-15T15:02:47.250Z,29.50
2022-09-15T15:05:34.366Z,29.60
2022-09-15T15:08:03.523Z,29.50
2022-09-15T15:10:35.601Z,29.10
2022-09-15T15:13:06.197Z,28.80
2022-09-15T15:15:33.443Z,28.50
2022-09-15T15:18:00.683Z,28.30
2022-09-15T15:20:30.291Z,28.30
2022-09-15T15:23:09.917Z,28.10
2022-09-15T15:25:37.311Z,28.20
2022-09-15T15:28:04.610Z,28.00
2022-09-15T15:30:33.123Z,28.20
2022-09-15T15:33:19.693Z,28.50
2022-09-15T15:35:46.971Z,28.50
2022-09-15T15:38:13.645Z,28.60
2022-09-15T15:40:40.653Z,28.70
2022-09-15T15:43:16.851Z,28.60
2022-09-15T15:46:01.309Z,28.60
2022-09-15T15:48:33.993Z,28.30
2022-09-15T15:51:04.779Z,28.30
2022-09-15T15:53:31.689Z,28.40
2022-09-15T15:55:59.709Z,28.20
2022-09-15T15:58:27.126Z,28.30
2022-09-15T16:00:56.375Z,28.20
2022-09-15T16:03:24.108Z,28.10
2022-09-15T16:05:52.072Z,28.10
2022-09-15T16:08:27.924Z,27.90
2022-09-15T16:10:55.084Z,27.90
2022-09-15T16:13:22.380Z,27.80
2022-09-15T16:15:49.486Z,27.50
2022-09-15T16:18:16.338Z,27.40
2022-09-15T16:20:43.324Z,27.30
2022-09-15T16:23:14.802Z,27.20
2022-09-15T16:26:05.254Z,27.20
2022-09-15T16:28:32.022Z,27.20
2022-09-15T16:30:59.295Z,27.30
2022-09-15T16:33:26.217Z,27.30
2022-09-15T16:35:55.127Z,27.20
2022-09-15T16:38:25.355Z,27.20
2022-09-15T16:40:52.386Z,27.10
2022-09-15T16:43:22.545Z,27.00
2022-09-15T16:45:49.745Z,26.90
2022-09-15T16:48:16.600Z,26.80
2022-09-15T16:51:16.076Z,26.80
2022-09-15T16:53:31.116Z,26.70
2022-09-15T16:55:57.932Z,26.60
2022-09-15T16:58:24.743Z,26.60
2022-09-15T17:00:52.636Z,26.40
2022-09-15T17:03:23.956Z,26.40
2022-09-15T17:05:58.896Z,26.30
2022-09-15T17:08:28.735Z,26.20
2022-09-15T17:10:59.157Z,26.10
2022-09-15T17:13:29.531Z,26.10
2022-09-15T17:15:57.993Z,26.10
2022-09-15T17:18:24.980Z,26.00
2022-09-15T17:20:51.869Z,25.90
2022-09-15T17:23:20.253Z,25.90
2022-09-15T17:25:52.020Z,25.80
2022-09-15T17:28:22.861Z,25.70
2022-09-15T17:30:50.627Z,25.70
2022-09-15T17:33:18.505Z,25.60
2022-09-15T17:35:45.904Z,25.50
2022-09-15T17:38:12.731Z,25.40
2022-09-15T17:40:39.664Z,25.20
2022-09-15T17:43:11.017Z,25.00
2022-09-15T17:45:38.057Z,24.90
2022-09-15T17:48:05.007Z,24.60
2022-09-15T17:50:32.645Z,24.50
2022-09-15T17:52:59.700Z,24.70
2022-09-15T17:55:30.997Z,24.70
2022-09-15T17:57:58.810Z,24.70
2022-09-15T18:00:26.406Z,24.70
2022-09-15T18:02:54.813Z,24.70
2022-09-15T18:05:23.419Z,24.60
2022-09-15T18:07:51.201Z,24.40
2022-09-15T18:10:17.953Z,24.30
2022-09-15T18:12:47.337Z,24.30
2022-09-15T18:15:18.733Z,24.20
2022-09-15T18:17:45.569Z,24.20
2022-09-15T18:20:13.211Z,24.20
2022-09-15T18:22:40.161Z,24.20
2022-09-15T18:25:07.377Z,24.30
2022-09-15T18:27:34.173Z,24.20
2022-09-15T18:30:01.241Z,24.10
2022-09-15T18:32:28.033Z,23.90
2022-09-15T18:34:54.735Z,23.90
2022-09-15T18:37:21.514Z,23.80
2022-09-15T18:39:48.326Z,23.80
2022-09-15T18:42:15.202Z,23.70
2022-09-15T18:44:41.968Z,23.60
2022-09-15T18:47:08.855Z,23.50
2022-09-15T18:49:35.657Z,23.30
2022-09-15T18:52:03.182Z,23.30
2022-09-15T18:54:30.010Z,23.20
2022-09-15T18:56:58.193Z,23.20
2022-09-15T18:59:25.039Z,23.20
2022-09-15T19:01:52.519Z,23.10
2022-09-15T19:04:19.414Z,23.00
2022-09-15T19:06:46.122Z,22.90
2022-09-15T19:09:12.877Z,22.90
2022-09-15T19:11:39.602Z,22.80
2022-09-15T19:14:06.328Z,22.60
2022-09-15T19:16:53.779Z,22.60
2022-09-15T19:19:19.949Z,22.60
2022-09-15T19:21:46.748Z,22.50
2022-09-15T19:24:16.003Z,22.50
2022-09-15T19:26:43.678Z,22.40
2022-09-15T19:29:11.052Z,22.40
2022-09-15T19:31:41.844Z,22.40
2022-09-15T19:34:09.192Z,22.40
2022-09-15T19:36:35.944Z,22.40
2022-09-15T19:39:03.824Z,22.30
2022-09-15T19:41:31.064Z,22.30
2022-09-15T19:44:00.165Z,22.30
2022-09-15T19:46:27.189Z,22.20
2022-09-15T19:48:54.080Z,22.30
2022-09-15T19:51:21.244Z,22.10
2022-09-15T19:53:48.053Z,22.00
2022-09-15T19:56:15.850Z,22.00
2022-09-15T19:58:43.239Z,22.00
2022-09-15T20:01:10.731Z,22.00
2022-09-15T20:06:22.014Z,22.10
2022-09-15T20:08:51.626Z,22.10
2022-09-15T20:11:18.639Z,22.10
2022-09-15T20:13:45.453Z,22.10
2022-09-15T20:16:19.853Z,22.00
2022-09-15T20:18:47.916Z,22.10
2022-09-15T20:21:26.923Z,22.10
2022-09-15T20:23:59.574Z,22.00
2022-09-15T20:26:26.655Z,22.00
2022-09-15T20:28:53.826Z,22.10
2022-09-15T20:31:21.944Z,22.00
2022-09-15T20:33:49.321Z,21.90
2022-09-15T20:36:23.451Z,22.00
2022-09-15T20:38:51.236Z,21.80
2022-09-15T20:41:19.472Z,21.80
2022-09-15T20:43:46.300Z,21.80
2022-09-15T20:46:14.890Z,21.70
2022-09-15T20:48:42.422Z,21.70
2022-09-15T20:51:13.862Z,21.70
2022-09-15T20:53:43.897Z,21.80
2022-09-15T20:56:11.466Z,21.80
2022-09-15T20:58:38.568Z,21.80
2022-09-15T21:01:12.558Z,22.00
2022-09-15T21:03:40.343Z,22.00
2022-09-15T21:06:08.768Z,21.70
2022-09-15T21:08:35.996Z,21.60
2022-09-15T21:11:05.084Z,21.70
2022-09-15T21:13:33.729Z,21.70
2022-09-15T21:16:02.364Z,21.70
2022-09-15T21:18:29.977Z,21.70
2022-09-15T21:20:58.055Z,21.80
2022-09-15T21:23:25.531Z,21.70
2022-09-15T21:26:02.266Z,21.60
2022-09-15T21:28:29.436Z,21.60
2022-09-15T21:31:12.751Z,21.50
2022-09-15T21:33:39.724Z,21.50
2022-09-15T21:36:06.724Z,21.40
2022-09-15T21:38:44.071Z,21.30
2022-09-15T21:41:15.026Z,21.30
2022-09-15T21:43:43.126Z,21.30
2022-09-15T21:46:11.901Z,21.30
2022-09-15T21:48:38.973Z,21.30
2022-09-15T21:51:06.376Z,21.20
2022-09-15T21:53:34.889Z,21.30
2022-09-15T21:56:02.677Z,21.40
2022-09-15T21:58:38.935Z,21.40
2022-09-15T22:01:13.530Z,21.30
2022-09-15T22:03:42.282Z,21.40
2022-09-15T22:06:10.222Z,21.50
2022-09-15T22:08:38.209Z,21.40
2022-09-15T22:11:05.393Z,21.30
2022-09-15T22:13:32.316Z,21.30
2022-09-15T22:16:18.330Z,21.50
2022-09-15T22:18:45.299Z,21.40
2022-09-15T22:21:16.169Z,21.40
2022-09-15T22:23:43.943Z,21.40
2022-09-15T22:26:15.229Z,21.40
2022-09-15T22:28:42.304Z,21.40
2022-09-15T22:31:10.321Z,21.30
2022-09-15T22:33:37.553Z,21.30
2022-09-15T22:36:06.031Z,21.40
2022-09-15T22:38:32.749Z,21.30
2022-09-15T22:41:06.274Z,21.30
2022-09-15T22:43:33.630Z,21.30
2022-09-15T22:46:00.422Z,21.40
2022-09-15T22:48:27.673Z,21.40
2022-09-15T22:50:54.503Z,21.30
2022-09-15T22:53:23.403Z,21.40
2022-09-15T22:55:50.501Z,21.20
2022-09-15T22:58:17.339Z,21.10
2022-09-15T23:00:44.257Z,21.10
2022-09-15T23:03:11.417Z,21.00
2022-09-15T23:05:39.315Z,21.00
2022-09-15T23:08:06.107Z,21.00
2022-09-15T23:10:33.317Z,21.00
2022-09-15T23:13:00.515Z,20.90
2022-09-15T23:15:28.788Z,20.90
2022-09-15T23:17:55.530Z,21.00
2022-09-15T23:20:22.290Z,21.00
2022-09-15T23:22:49.048Z,20.90
2022-09-15T23:25:15.925Z,20.80
2022-09-15T23:27:42.664Z,20.70
2022-09-15T23:30:09.747Z,20.60
2022-09-15T23:32:37.027Z,20.50
2022-09-15T23:35:03.927Z,20.50
2022-09-15T23:37:30.671Z,20.50
2022-09-15T23:39:57.480Z,20.50
2022-09-15T23:42:24.233Z,20.50
2022-09-15T23:44:50.997Z,20.60
2022-09-15T23:47:17.739Z,20.50
2022-09-15T23:49:44.491Z,20.50
2022-09-15T23:52:11.182Z,20.50
2022-09-15T23:54:37.881Z,20.40
2022-09-15T23:57:04.565Z,20.40
2022-09-15T23:59:31.295Z,20.40
